Time;durP1;ratioP1;P1;durP2;ratioP2;P2;SDS_P1;SDS_P2;PMS_P1;PMS_P2;Temp;Humidity;BMP_temperature;BMP_pressure;BME280_temperature;BME280_humidity;BME280_pressure;Samples;Min_cycle;Max_cycle;Signal;HPM_P1;HPM_P2
2024/02/28 00:01:59;;;;;;;19.35;6.18;;;;;;;6.18;100.00;100602.19;5088023;28;20058;-78
2024/02/28 00:04:25;;;;;;;27.35;7.38;;;;;;;6.27;100.00;100610.88;5069689;28;20024;-77
2024/02/28 00:06:50;;;;;;;18.23;7.65;;;;;;;6.18;100.00;100604.81;5088503;28;20024;-77
2024/02/28 00:09:16;;;;;;;15.55;7.40;;;;;;;5.97;100.00;100611.59;5067699;28;20040;-77
2024/02/28 00:11:45;;;;;;;16.70;7.07;;;;;;;5.94;100.00;100621.66;5082848;28;20486;-77
2024/02/28 00:14:11;;;;;;;20.52;7.40;;;;;;;5.87;100.00;100605.66;5088082;28;20036;-77
2024/02/28 00:16:41;;;;;;;17.42;7.15;;;;;;;5.93;100.00;100620.03;5069690;28;20032;-77
2024/02/28 00:19:06;;;;;;;20.27;6.78;;;;;;;5.83;100.00;100620.25;5069750;28;20485;-76
2024/02/28 00:21:32;;;;;;;18.67;6.93;;;;;;;5.69;100.00;100589.22;5087732;28;20059;-77
2024/02/28 00:23:57;;;;;;;20.95;7.35;;;;;;;5.91;100.00;100622.84;5061533;28;20036;-76
2024/02/28 00:26:23;;;;;;;20.85;7.53;;;;;;;5.67;100.00;100599.16;5054811;28;20119;-77
2024/02/28 00:28:48;;;;;;;17.83;7.10;;;;;;;6.01;100.00;100618.19;5087610;28;20024;-77
2024/02/28 00:31:14;;;;;;;20.25;6.75;;;;;;;5.93;100.00;100620.84;5069163;28;20066;-77
2024/02/28 00:33:39;;;;;;;17.27;7.00;;;;;;;5.96;100.00;100612.56;5084175;28;20059;-77
2024/02/28 00:36:04;;;;;;;18.85;7.88;;;;;;;5.90;100.00;100615.88;5069320;28;20054;-76
2024/02/28 00:38:30;;;;;;;17.95;6.38;;;;;;;5.98;100.00;100617.69;5087525;28;20032;-78
2024/02/28 00:40:55;;;;;;;22.70;7.20;;;;;;;6.11;100.00;100633.84;5087293;28;20147;-76
2024/02/28 00:43:21;;;;;;;18.48;7.55;;;;;;;6.01;100.00;100623.47;5087342;28;20110;-77
2024/02/28 00:45:46;;;;;;;18.33;7.65;;;;;;;5.90;100.00;100604.47;5087339;28;20438;-76
2024/02/28 00:48:11;;;;;;;18.65;8.07;;;;;;;5.77;100.00;100605.06;5068724;28;20396;-79
2024/02/28 00:50:37;;;;;;;22.75;8.57;;;;;;;5.95;100.00;100599.53;5086888;28;20510;-77
2024/02/28 00:53:02;;;;;;;19.13;8.88;;;;;;;5.95;100.00;100608.28;5068431;28;20540;-78
2024/02/28 00:55:28;;;;;;;18.75;7.82;;;;;;;5.98;100.00;100615.03;5080384;28;20612;-77
2024/02/28 00:57:53;;;;;;;23.60;8.57;;;;;;;6.10;100.00;100629.53;5081915;28;20074;-77
2024/02/28 01:00:19;;;;;;;18.15;7.32;;;;;;;5.74;100.00;100602.75;5087169;28;20035;-77
2024/02/28 01:02:44;;;;;;;21.17;8.23;;;;;;;5.69;100.00;100618.34;5068751;28;20044;-76
2024/02/28 01:05:10;;;;;;;22.58;7.68;;;;;;;5.57;100.00;100604.66;5086959;28;20036;-76
2024/02/28 01:07:35;;;;;;;18.00;7.43;;;;;;;5.62;100.00;100623.50;5086622;28;20089;-76
2024/02/28 01:10:02;;;;;;;14.15;6.15;;;;;;;5.75;100.00;100633.53;5086791;28;20035;-76
2024/02/28 01:12:27;;;;;;;18.27;7.00;;;;;;;5.63;100.00;100606.63;5086906;28;20489;-76
2024/02/28 01:14:53;;;;;;;13.68;6.28;;;;;;;5.80;100.00;100623.22;5087144;28;20036;-78
2024/02/28 01:17:18;;;;;;;20.52;6.80;;;;;;;5.91;100.00;100643.19;5087362;28;20036;-77
2024/02/28 01:19:44;;;;;;;15.90;6.60;;;;;;;5.71;100.00;100633.03;5086565;28;20130;-77
2024/02/28 01:22:09;;;;;;;17.75;6.40;;;;;;;5.56;100.00;100625.00;5086692;28;20099;-77
2024/02/28 01:24:35;;;;;;;20.17;8.77;;;;;;;5.72;100.00;100631.19;5086358;28;20066;-76
2024/02/28 01:27:00;;;;;;;16.58;6.63;;;;;;;5.62;100.00;100619.03;5086174;28;20497;-77
2024/02/28 01:29:26;;;;;;;18.85;7.30;;;;;;;5.53;100.00;100625.34;5068221;28;20630;-78
2024/02/28 01:31:52;;;;;;;17.27;7.90;;;;;;;5.69;100.00;100650.91;5081518;28;20651;-78
2024/02/28 01:34:18;;;;;;;17.75;7.05;;;;;;;5.50;100.00;100615.13;5087090;28;20562;-77
2024/02/28 01:36:44;;;;;;;16.58;6.63;;;;;;;5.74;100.00;100643.28;5086722;28;20028;-77
2024/02/28 01:39:09;;;;;;;18.35;7.03;;;;;;;5.80;100.00;100632.00;5068138;28;20032;-77
2024/02/28 01:41:34;;;;;;;20.27;9.07;;;;;;;6.06;100.00;100620.28;5086155;28;20031;-78
2024/02/28 01:44:00;;;;;;;40.95;20.88;;;;;;;5.91;100.00;100622.03;5086392;28;20114;-77
2024/02/28 01:46:26;;;;;;;29.45;14.20;;;;;;;6.09;100.00;100624.41;5086345;28;20469;-77
2024/02/28 01:48:54;;;;;;;18.40;9.20;;;;;;;6.36;100.00;100652.22;5086243;28;20031;-77
2024/02/28 01:51:22;;;;;;;25.02;10.05;;;;;;;6.32;100.00;100651.72;5085523;28;20081;-77
2024/02/28 01:53:49;;;;;;;19.13;8.50;;;;;;;5.97;100.00;100606.28;5086607;28;20028;-77
2024/02/28 01:56:16;;;;;;;18.52;7.30;;;;;;;5.62;100.00;100581.97;5068311;28;20084;-76
2024/02/28 01:58:46;;;;;;;17.42;5.93;;;;;;;5.80;100.00;100628.50;5067639;28;20034;-76
2024/02/28 02:01:13;;;;;;;16.33;6.50;;;;;;;5.50;100.00;100623.06;5068112;28;20032;-76
2024/02/28 02:03:38;;;;;;;18.02;6.93;;;;;;;5.47;100.00;100614.63;5086258;28;20050;-77
2024/02/28 02:06:05;;;;;;;14.88;6.85;;;;;;;5.47;100.00;100631.31;5085617;28;20024;-77
2024/02/28 02:08:31;;;;;;;20.48;6.90;;;;;;;5.69;100.00;100629.72;5085431;28;20098;-77
2024/02/28 02:10:56;;;;;;;21.73;7.63;;;;;;;5.63;100.00;100644.47;5067794;28;20452;-78
2024/02/28 02:13:22;;;;;;;20.48;8.38;;;;;;;5.66;100.00;100643.31;5086001;28;20497;-77
2024/02/28 02:15:47;;;;;;;18.20;6.88;;;;;;;5.28;100.00;100606.09;5085899;28;20500;-77
2024/02/28 02:18:13;;;;;;;18.98;7.28;;;;;;;5.39;100.00;100641.94;5085968;28;20093;-78
2024/02/28 02:20:43;;;;;;;16.92;7.57;;;;;;;5.37;100.00;100635.97;5085502;28;20409;-76
2024/02/28 02:23:09;;;;;;;18.63;6.95;;;;;;;5.35;100.00;100630.03;5067730;28;20032;-77
2024/02/28 02:25:34;;;;;;;18.50;8.15;;;;;;;5.42;100.00;100625.72;5085907;28;20446;-78
2024/02/28 02:28:00;;;;;;;16.02;6.88;;;;;;;5.17;100.00;100644.31;5067365;28;20093;-77
2024/02/28 02:30:25;;;;;;;18.17;7.32;;;;;;;5.14;100.00;100630.59;5067405;28;20036;-77
2024/02/28 02:32:50;;;;;;;20.95;7.93;;;;;;;5.40;100.00;100644.41;5085915;28;20483;-78
2024/02/28 02:35:16;;;;;;;18.10;6.93;;;;;;;5.06;100.00;100612.13;5067561;28;20031;-77
2024/02/28 02:37:48;;;;;;;20.80;6.97;;;;;;;4.98;100.00;100647.31;5085493;28;20077;-78
2024/02/28 02:40:14;;;;;;;20.48;8.38;;;;;;;5.13;100.00;100640.38;5085857;28;20032;-77
2024/02/28 02:42:40;;;;;;;19.50;8.80;;;;;;;5.46;100.00;100653.50;5085759;28;20036;-77
2024/02/28 02:45:06;;;;;;;16.30;8.00;;;;;;;5.99;100.00;100677.59;5085899;28;20043;-77
2024/02/28 02:47:31;;;;;;;17.92;7.75;;;;;;;6.11;100.00;100676.22;5085941;28;20035;-76
2024/02/28 02:49:56;;;;;;;23.55;8.65;;;;;;;6.00;100.00;100655.41;5067831;28;20099;-77
2024/02/28 02:52:22;;;;;;;31.63;11.52;;;;;;;5.93;100.00;100663.19;5085407;28;20031;-77
2024/02/28 02:54:47;;;;;;;24.20;12.60;;;;;;;5.50;100.00;100673.31;5085671;28;20032;-76
2024/02/28 02:57:12;;;;;;;25.30;14.35;;;;;;;5.98;100.00;100676.75;5086063;28;20123;-76
2024/02/28 02:59:38;;;;;;;23.23;12.52;;;;;;;6.04;100.00;100676.06;5085184;28;20031;-77
2024/02/28 03:02:04;;;;;;;24.67;11.23;;;;;;;6.02;100.00;100693.13;5085154;28;20036;-77
2024/02/28 03:04:29;;;;;;;21.80;11.18;;;;;;;5.97;100.00;100696.31;5067607;28;20092;-78
2024/02/28 03:06:54;;;;;;;23.90;11.32;;;;;;;6.03;100.00;100706.19;5067630;28;20063;-77
2024/02/28 03:09:20;;;;;;;26.83;13.23;;;;;;;6.00;100.00;100700.41;5085327;28;20027;-77
2024/02/28 03:11:45;;;;;;;25.60;12.75;;;;;;;6.02;100.00;100709.84;5085305;28;20081;-77
2024/02/28 03:14:11;;;;;;;25.85;11.57;;;;;;;5.83;100.00;100691.72;5068634;28;20085;-77
2024/02/28 03:16:41;;;;;;;19.13;9.73;;;;;;;5.73;100.00;100705.13;5086466;28;20066;-77
2024/02/28 03:19:06;;;;;;;15.27;7.93;;;;;;;5.63;100.00;100705.34;5089003;28;20024;-77
2024/02/28 03:21:32;;;;;;;21.90;7.57;;;;;;;5.57;100.00;100695.44;5089445;28;20113;-77
2024/02/28 03:23:57;;;;;;;21.30;8.23;;;;;;;5.64;100.00;100712.28;5089072;28;20028;-78
2024/02/28 03:26:23;;;;;;;18.75;8.52;;;;;;;5.62;100.00;100702.88;5089018;28;20030;-78
2024/02/28 03:28:48;;;;;;;22.92;9.05;;;;;;;5.51;100.00;100680.25;5070698;28;20067;-78
2024/02/28 03:31:13;;;;;;;18.27;7.82;;;;;;;5.86;100.00;100704.59;5089006;28;20036;-76
2024/02/28 03:33:39;;;;;;;18.92;9.55;;;;;;;5.97;100.00;100706.91;5087755;28;20032;-77
2024/02/28 03:36:04;;;;;;;19.30;9.50;;;;;;;5.63;100.00;100702.69;5089162;28;20668;-78
2024/02/28 03:38:30;;;;;;;16.83;8.25;;;;;;;5.78;100.00;100704.63;5070307;28;20039;-77
2024/02/28 03:40:55;;;;;;;21.55;9.18;;;;;;;5.60;100.00;100683.69;5088247;28;20047;-78
2024/02/28 03:43:21;;;;;;;27.63;11.55;;;;;;;5.69;100.00;100718.88;5088489;28;20505;-77
2024/02/28 03:45:46;;;;;;;23.70;10.15;;;;;;;5.88;100.00;100702.59;5070412;28;20486;-77
2024/02/28 03:48:12;;;;;;;26.70;12.10;;;;;;;5.90;100.00;100683.91;5070149;28;20035;-77
2024/02/28 03:50:37;;;;;;;26.98;13.38;;;;;;;6.04;100.00;100697.25;5088558;28;20476;-77
2024/02/28 03:53:03;;;;;;;23.23;12.25;;;;;;;5.91;100.00;100694.31;5088223;28;20052;-78
2024/02/28 03:55:29;;;;;;;25.00;10.75;;;;;;;5.73;100.00;100701.69;5069759;28;20036;-78
2024/02/28 03:57:54;;;;;;;23.83;9.10;;;;;;;5.63;100.00;100704.50;5088032;28;20028;-77
2024/02/28 04:00:20;;;;;;;19.25;8.68;;;;;;;5.44;100.00;100703.09;5088737;28;20491;-77
2024/02/28 04:02:45;;;;;;;20.15;8.30;;;;;;;5.56;100.00;100720.25;5069608;28;20056;-78
2024/02/28 04:05:11;;;;;;;22.27;9.15;;;;;;;5.70;100.00;100713.44;5069882;28;20084;-77
2024/02/28 04:07:36;;;;;;;17.88;9.38;;;;;;;5.39;100.00;100702.75;5069664;28;20020;-77
2024/02/28 04:10:05;;;;;;;37.58;17.75;;;;;;;4.88;100.00;100731.25;5088405;28;20028;-77
2024/02/28 04:12:30;;;;;;;;;;;;;;;4.57;100.00;100729.25;5088494;28;20017;-78
2024/02/28 04:14:55;;;;;;;18.92;9.50;;;;;;;4.33;100.00;100696.53;5087846;28;19916;-78
2024/02/28 04:17:21;;;;;;;18.58;8.52;;;;;;;4.69;100.00;100696.22;5088002;28;20031;-78
2024/02/28 04:19:46;;;;;;;19.17;8.45;;;;;;;4.97;100.00;100720.50;5069343;28;20130;-77
2024/02/28 04:22:11;;;;;;;19.50;8.85;;;;;;;5.15;100.00;100725.63;5087648;28;20081;-77
2024/02/28 04:24:37;;;;;;;17.90;9.13;;;;;;;5.21;100.00;100705.59;5087424;28;20028;-77
2024/02/28 04:27:04;;;;;;;27.50;12.50;;;;;;;5.08;100.00;100708.78;5069511;28;20547;-77
2024/02/28 04:29:30;;;;;;;37.65;19.42;;;;;;;5.40;100.00;100715.00;5086773;28;20059;-76
2024/02/28 04:31:55;;;;;;;34.13;16.77;;;;;;;5.07;100.00;100715.06;5069450;28;20064;-77
2024/02/28 04:34:20;;;;;;;25.13;11.93;;;;;;;5.28;100.00;100709.25;5087675;28;20110;-77
2024/02/28 04:36:46;;;;;;;25.42;10.73;;;;;;;5.22;100.00;100702.78;5087556;28;20431;-77
2024/02/28 04:39:11;;;;;;;24.38;14.05;;;;;;;5.64;100.00;100712.28;5087591;28;20039;-77
2024/02/28 04:41:36;;;;;;;40.67;30.33;;;;;;;5.61;100.00;100706.50;5087551;28;20107;-76
2024/02/28 04:44:02;;;;;;;26.17;13.48;;;;;;;5.84;100.00;100707.44;5069239;28;20051;-77
2024/02/28 04:46:28;;;;;;;32.83;13.60;;;;;;;5.76;100.00;100720.69;5087155;28;20464;-77
2024/02/28 04:48:53;;;;;;;40.20;11.35;;;;;;;5.57;100.00;100721.88;5086924;28;20632;-77
2024/02/28 04:51:19;;;;;;;19.08;8.93;;;;;;;5.90;100.00;100719.13;5086660;28;20500;-76
2024/02/28 04:53:44;;;;;;;18.35;9.88;;;;;;;5.89;100.00;100720.13;5087214;28;20102;-78
2024/02/28 04:56:09;;;;;;;28.60;10.98;;;;;;;5.97;100.00;100714.03;5069283;28;20038;-77
2024/02/28 04:58:36;;;;;;;27.63;12.60;;;;;;;6.09;100.00;100714.44;5068863;28;20031;-76
2024/02/28 05:01:01;;;;;;;26.20;13.63;;;;;;;6.15;100.00;100711.09;5087016;28;20138;-75
2024/02/28 05:03:27;;;;;;;23.35;10.50;;;;;;;5.67;100.00;100689.94;5086533;28;20181;-76
2024/02/28 05:05:52;;;;;;;24.52;11.93;;;;;;;5.61;100.00;100712.63;5068717;28;20084;-77
2024/02/28 05:08:20;;;;;;;26.58;12.85;;;;;;;5.66;100.00;100721.88;5068708;28;20039;-77
2024/02/28 05:10:45;;;;;;;30.80;12.75;;;;;;;5.81;100.00;100733.41;5086995;28;20525;-77
2024/02/28 05:13:10;;;;;;;22.75;11.02;;;;;;;5.71;100.00;100727.50;5068179;28;20189;-77
2024/02/28 05:15:36;;;;;;;27.08;14.13;;;;;;;5.40;100.00;100717.66;5068676;28;20036;-77
2024/02/28 05:18:01;;;;;;;24.13;11.35;;;;;;;5.43;100.00;100707.56;5086729;28;20035;-78
2024/02/28 05:20:27;;;;;;;26.50;14.23;;;;;;;5.61;100.00;100711.81;5087022;28;20059;-77
2024/02/28 05:22:52;;;;;;;29.55;11.27;;;;;;;5.66;100.00;100722.72;5086569;28;20511;-77
2024/02/28 05:25:18;;;;;;;25.85;12.32;;;;;;;5.70;100.00;100741.69;5068739;28;20075;-76
2024/02/28 05:27:43;;;;;;;24.98;13.90;;;;;;;5.48;100.00;100754.66;5064620;28;20105;-77
2024/02/28 05:30:09;;;;;;;26.52;12.95;;;;;;;5.27;100.00;100746.41;5048364;28;20473;-77
2024/02/28 05:32:35;;;;;;;22.70;11.95;;;;;;;5.15;100.00;100759.16;5046050;28;20025;-77
2024/02/28 05:35:00;;;;;;;21.15;11.65;;;;;;;5.06;100.00;100725.78;5030756;28;20376;-77
2024/02/28 05:37:26;;;;;;;25.58;13.38;;;;;;;5.20;100.00;100741.81;5066386;28;20931;-77
2024/02/28 05:39:51;;;;;;;29.35;14.13;;;;;;;5.01;100.00;100744.81;5051698;28;20507;-77
2024/02/28 05:42:21;;;;;;;39.70;19.50;;;;;;;5.73;100.00;100778.44;5046071;28;20036;-77
2024/02/28 05:44:50;;;;;;;40.60;22.20;;;;;;;5.81;100.00;100765.16;5042284;28;20033;-77
2024/02/28 05:47:16;;;;;;;35.85;17.85;;;;;;;5.90;100.00;100780.00;5066172;28;20033;-77
2024/02/28 05:49:41;;;;;;;34.65;17.98;;;;;;;5.70;100.00;100784.88;5052445;28;20056;-77
2024/02/28 05:52:07;;;;;;;36.35;14.80;;;;;;;5.97;100.00;100770.44;5046168;28;20025;-78
2024/02/28 05:54:33;;;;;;;37.58;19.08;;;;;;;6.14;100.00;100787.06;5044617;28;20044;-77
2024/02/28 05:56:59;;;;;;;34.75;22.77;;;;;;;6.18;100.00;100767.19;5062744;28;20462;-77
2024/02/28 05:59:25;;;;;;;27.33;17.30;;;;;;;6.21;100.00;100789.84;5056519;28;20243;-78
2024/02/28 06:01:50;;;;;;;24.15;12.70;;;;;;;6.53;100.00;100780.09;5046263;28;20041;-77
2024/02/28 06:04:16;;;;;;;22.77;11.43;;;;;;;6.67;100.00;100771.41;5045846;28;21080;-78
2024/02/28 06:06:42;;;;;;;21.58;11.95;;;;;;;6.72;100.00;100784.97;5059762;28;20060;-77
2024/02/28 06:09:07;;;;;;;30.67;11.35;;;;;;;6.82;100.00;100785.56;5057748;28;21085;-78
2024/02/28 06:11:33;;;;;;;24.05;12.32;;;;;;;6.41;100.00;100791.06;5045859;28;20123;-78
2024/02/28 06:13:58;;;;;;;24.25;13.77;;;;;;;6.76;100.00;100802.16;5045726;28;20082;-77
2024/02/28 06:16:24;;;;;;;21.35;10.52;;;;;;;6.81;100.00;100783.88;5045672;28;20037;-77
2024/02/28 06:18:49;;;;;;;23.27;10.27;;;;;;;6.74;100.00;100795.38;5044291;28;20544;-77
2024/02/28 06:21:15;;;;;;;22.40;11.15;;;;;;;6.56;100.00;100780.59;5045985;28;20113;-77
2024/02/28 06:23:40;;;;;;;23.10;11.38;;;;;;;7.02;100.00;100816.88;5045710;28;20037;-78
2024/02/28 06:26:06;;;;;;;22.10;10.68;;;;;;;6.96;100.00;100804.34;5053680;28;20123;-78
2024/02/28 06:28:32;;;;;;;19.90;9.57;;;;;;;6.67;100.00;100803.19;5084141;28;20474;-77
2024/02/28 06:30:57;;;;;;;30.23;12.32;;;;;;;6.84;100.00;100804.75;5085536;28;20036;-77
2024/02/28 06:33:23;;;;;;;21.90;10.18;;;;;;;6.77;100.00;100809.09;5067633;28;20028;-78
2024/02/28 06:35:48;;;;;;;27.10;12.82;;;;;;;6.62;100.00;100813.53;5086092;28;20078;-77
2024/02/28 06:38:14;;;;;;;29.88;11.68;;;;;;;6.70;100.00;100808.16;5086229;28;20036;-77
2024/02/28 06:40:40;;;;;;;28.13;12.93;;;;;;;7.12;100.00;100812.16;5068334;28;20027;-78
2024/02/28 06:43:05;;;;;;;30.60;13.40;;;;;;;7.03;100.00;100800.00;5085170;28;20566;-77
2024/02/28 06:45:31;;;;;;;26.20;13.02;;;;;;;7.03;100.00;100803.47;5085137;28;20039;-77
2024/02/28 06:47:57;;;;;;;28.77;13.27;;;;;;;6.94;100.00;100819.59;5084537;28;20042;-77
2024/02/28 06:50:23;;;;;;;30.77;15.38;;;;;;;7.21;100.00;100797.00;5076288;28;20044;-77
2024/02/28 06:52:48;;;;;;;30.80;15.40;;;;;;;7.64;100.00;100827.31;5087511;28;20112;-77
2024/02/28 06:55:14;;;;;;;31.40;14.57;;;;;;;7.74;100.00;100832.34;5089179;28;20757;-77
2024/02/28 06:57:41;;;;;;;40.97;16.35;;;;;;;7.35;100.00;100811.31;5080882;28;20032;-77
2024/02/28 07:00:08;;;;;;;46.15;18.00;;;;;;;7.35;100.00;100819.28;5089286;28;20039;-77
2024/02/28 07:02:34;;;;;;;36.15;16.05;;;;;;;7.74;100.00;100836.84;5071131;28;20111;-77
2024/02/28 07:05:00;;;;;;;31.27;15.50;;;;;;;7.46;100.00;100818.88;5070774;28;20130;-77
2024/02/28 07:07:25;;;;;;;40.65;16.95;;;;;;;7.80;100.00;100826.31;5089283;28;20453;-78
2024/02/28 07:09:51;;;;;;;36.15;16.42;;;;;;;7.88;100.00;100840.53;5088692;28;20476;-77
2024/02/28 07:12:16;;;;;;;33.10;17.25;;;;;;;7.60;100.00;100810.09;5076787;28;20064;-78
2024/02/28 07:14:42;;;;;;;37.92;16.27;;;;;;;7.91;100.00;100821.59;5088139;28;20443;-78
2024/02/28 07:17:07;;;;;;;38.38;17.13;;;;;;;8.01;100.00;100843.38;5087957;28;20493;-77
2024/02/28 07:19:33;;;;;;;35.20;16.55;;;;;;;7.96;100.00;100827.97;5111599;27;20066;-78
2024/02/28 07:21:58;;;;;;;34.10;16.90;;;;;;;8.17;100.00;100826.41;5078508;28;20031;-78
2024/02/28 07:24:23;;;;;;;35.92;14.52;;;;;;;8.32;100.00;100824.56;5072094;28;20165;-77
2024/02/28 07:26:50;;;;;;;27.00;13.98;;;;;;;8.26;100.00;100812.03;5084611;28;20044;-78
2024/02/28 07:29:16;;;;;;;34.10;14.07;;;;;;;8.61;100.00;100844.16;5070604;28;20504;-77
2024/02/28 07:31:41;;;;;;;29.27;13.57;;;;;;;8.68;100.00;100823.78;5088321;28;20040;-77
2024/02/28 07:34:07;;;;;;;27.73;13.52;;;;;;;8.63;100.00;100837.66;5088678;28;20027;-77
2024/02/28 07:36:34;;;;;;;29.27;14.20;;;;;;;9.14;100.00;100844.72;5088969;28;20104;-76
2024/02/28 07:38:59;;;;;;;30.45;13.98;;;;;;;8.97;100.00;100838.00;5084279;28;20270;-77
2024/02/28 07:41:25;;;;;;;28.10;13.52;;;;;;;8.51;100.00;100819.72;5087765;28;20489;-77
2024/02/28 07:43:50;;;;;;;27.25;13.23;;;;;;;8.97;100.00;100836.19;5085642;28;20059;-77
2024/02/28 07:46:15;;;;;;;28.20;12.52;;;;;;;9.27;100.00;100843.22;5087983;28;20028;-78
2024/02/28 07:48:41;;;;;;;27.48;13.15;;;;;;;9.12;100.00;100828.13;5088249;28;20088;-78
2024/02/28 07:51:07;;;;;;;20.58;12.13;;;;;;;9.18;100.00;100830.03;5087929;28;20102;-78
2024/02/28 07:53:32;;;;;;;28.55;12.88;;;;;;;8.81;100.00;100815.97;5087742;28;20024;-77
2024/02/28 07:55:58;;;;;;;29.55;12.90;;;;;;;9.35;100.00;100851.06;5087605;28;20049;-77
2024/02/28 07:58:23;;;;;;;31.88;13.00;;;;;;;9.65;100.00;100849.88;5087691;28;20031;-78
2024/02/28 08:00:50;;;;;;;29.25;13.70;;;;;;;9.55;100.00;100830.75;5087658;28;20092;-77
2024/02/28 08:03:16;;;;;;;38.30;13.45;;;;;;;9.62;100.00;100815.66;5087306;28;20031;-78
2024/02/28 08:05:43;;;;;;;27.65;12.95;;;;;;;9.91;100.00;100851.09;5088605;28;20035;-77
2024/02/28 08:08:08;;;;;;;29.30;13.30;;;;;;;9.94;100.00;100829.38;5070374;28;20032;-78
2024/02/28 08:10:35;;;;;;;30.63;13.65;;;;;;;9.91;100.00;100829.78;5088085;28;20081;-76
2024/02/28 08:13:01;;;;;;;26.40;12.73;;;;;;;9.84;100.00;100851.03;5088192;28;20496;-76
2024/02/28 08:15:26;;;;;;;30.10;13.02;;;;;;;9.87;100.00;100839.19;5086508;28;20028;-76
2024/02/28 08:17:51;;;;;;;24.17;12.00;;;;;;;9.56;100.00;100800.47;5104090;28;20032;-76
2024/02/28 08:20:17;;;;;;;28.63;12.13;;;;;;;9.91;100.00;100819.13;5103845;28;20115;-76
2024/02/28 08:22:42;;;;;;;24.08;12.10;;;;;;;10.01;100.00;100830.25;5088092;28;20032;-76
2024/02/28 08:25:11;;;;;;;28.08;12.48;;;;;;;10.51;100.00;100832.75;5087507;28;20028;-76
2024/02/28 08:27:37;;;;;;;28.67;12.35;;;;;;;10.30;100.00;100839.03;5088127;28;20075;-76
2024/02/28 08:30:03;;;;;;;26.02;13.60;;;;;;;10.78;100.00;100835.50;5087897;28;20020;-76
2024/02/28 08:32:28;;;;;;;28.60;13.43;;;;;;;11.09;100.00;100826.94;5087943;28;20074;-77
2024/02/28 08:34:54;;;;;;;26.70;13.13;;;;;;;10.93;100.00;100817.50;5069774;28;20032;-77
2024/02/28 08:37:20;;;;;;;28.70;12.45;;;;;;;10.84;100.00;100830.19;5070185;28;20477;-77
2024/02/28 08:39:45;;;;;;;25.83;12.57;;;;;;;11.19;100.00;100837.22;5070213;28;20020;-77
2024/02/28 08:42:12;;;;;;;28.05;14.00;;;;;;;10.94;100.00;100829.00;5088548;28;20144;-77
2024/02/28 08:44:37;;;;;;;24.33;13.30;;;;;;;11.45;98.23;100823.06;5095039;28;20054;-75
2024/02/28 08:47:02;;;;;;;26.05;13.05;;;;;;;11.45;99.82;100815.06;5080140;28;20451;-78
2024/02/28 08:49:29;;;;;;;27.25;13.32;;;;;;;11.49;96.71;100810.94;5098008;28;20028;-76
2024/02/28 08:51:54;;;;;;;29.02;12.45;;;;;;;11.51;97.69;100808.06;5098194;28;20035;-75
2024/02/28 08:54:20;;;;;;;31.77;15.10;;;;;;;11.39;100.00;100815.88;5098940;28;20020;-76
2024/02/28 08:56:45;;;;;;;26.73;13.10;;;;;;;11.95;95.57;100812.78;5097513;28;20020;-76
2024/02/28 08:59:10;;;;;;;24.67;12.82;;;;;;;11.96;95.98;100819.75;5097907;28;20146;-76
2024/02/28 09:01:36;;;;;;;30.38;13.13;;;;;;;12.12;90.99;100826.50;5098807;28;20056;-78
2024/02/28 09:04:02;;;;;;;31.48;13.80;;;;;;;11.88;91.79;100806.56;5095912;28;20328;-77
2024/02/28 09:06:27;;;;;;;33.53;14.63;;;;;;;11.98;89.88;100798.97;5095280;28;20040;-77
2024/02/28 09:08:53;;;;;;;29.38;13.23;;;;;;;12.57;90.36;100801.63;5076839;28;20039;-79
2024/02/28 09:11:18;;;;;;;31.25;15.15;;;;;;;12.53;90.20;100811.94;5095252;28;20097;-77
2024/02/28 09:13:43;;;;;;;29.88;14.52;;;;;;;12.19;91.35;100818.44;5077362;28;20036;-76
2024/02/28 09:16:09;;;;;;;32.20;14.88;;;;;;;12.30;89.86;100820.47;5094814;28;20032;-77
2024/02/28 09:18:35;;;;;;;29.25;13.73;;;;;;;12.50;88.68;100819.56;5094910;28;20036;-77
2024/02/28 09:21:00;;;;;;;28.23;15.05;;;;;;;12.51;88.95;100818.53;5075840;28;20507;-77
2024/02/28 09:23:26;;;;;;;42.13;19.48;;;;;;;13.04;82.93;100818.22;5093355;28;20036;-77
2024/02/28 09:25:51;;;;;;;44.55;21.92;;;;;;;13.57;81.16;100817.03;5091163;28;20057;-77
2024/02/28 09:28:17;;;;;;;29.55;14.70;;;;;;;13.43;81.05;100822.47;5090204;28;20077;-78
2024/02/28 09:30:43;;;;;;;28.13;15.85;;;;;;;13.11;83.97;100797.56;5089066;28;20016;-77
2024/02/28 09:33:08;;;;;;;35.17;15.35;;;;;;;13.79;79.66;100826.28;5088457;28;20040;-77
2024/02/28 09:35:36;;;;;;;26.50;14.65;;;;;;;13.89;78.46;100828.44;5087807;28;20054;-77
2024/02/28 09:38:02;;;;;;;29.88;15.68;;;;;;;14.13;78.53;100810.66;5067851;28;20039;-75
2024/02/28 09:40:28;;;;;;;27.33;15.38;;;;;;;14.40;72.26;100808.47;5087393;28;20089;-78
2024/02/28 09:43:01;;;;;;;32.10;18.92;;;;;;;14.57;74.80;100810.56;5087790;28;20040;-78
2024/02/28 09:45:29;;;;;;;30.38;19.27;;;;;;;14.80;76.10;100804.47;5087283;28;20489;-76
2024/02/28 09:47:55;;;;;;;35.20;19.75;;;;;;;15.30;68.34;100801.41;5068773;28;20050;-78
2024/02/28 09:50:20;;;;;;;35.30;20.13;;;;;;;15.27;67.70;100791.94;5070626;28;20166;-77
2024/02/28 09:52:48;;;;;;;32.28;17.90;;;;;;;14.66;71.09;100801.16;5085093;28;20031;-78
2024/02/28 09:55:13;;;;;;;26.48;15.82;;;;;;;15.13;70.05;100797.78;5086654;28;20031;-78
2024/02/28 09:57:41;;;;;;;28.65;15.32;;;;;;;15.55;69.38;100801.22;5086731;28;20039;-78
2024/02/28 10:00:07;;;;;;;29.53;14.83;;;;;;;15.35;67.51;100793.47;5087119;28;20023;-77
2024/02/28 10:02:33;;;;;;;27.08;14.43;;;;;;;15.25;69.65;100780.59;5083930;28;20108;-78
2024/02/28 10:05:00;;;;;;;23.30;14.48;;;;;;;15.07;68.78;100746.59;5086496;28;20031;-77
2024/02/28 10:07:27;;;;;;;29.02;15.15;;;;;;;15.94;64.97;100777.34;5086283;28;20046;-78
2024/02/28 10:09:52;;;;;;;28.40;14.15;;;;;;;16.41;62.41;100776.41;5086244;28;20035;-78
2024/02/28 10:12:19;;;;;;;57.00;21.60;;;;;;;16.17;66.92;100771.09;5101911;28;20024;-77
2024/02/28 10:14:44;;;;;;;28.20;13.00;;;;;;;16.25;64.80;100761.81;5068154;28;20067;-77
2024/02/28 10:17:09;;;;;;;21.98;12.70;;;;;;;15.99;65.23;100752.41;5086371;28;20051;-78
2024/02/28 10:19:35;;;;;;;48.78;19.08;;;;;;;16.42;68.05;100741.13;5085877;28;20031;-77
2024/02/28 10:22:00;;;;;;;29.80;14.02;;;;;;;17.05;62.82;100751.94;5085763;28;20035;-78
2024/02/28 10:24:26;;;;;;;23.48;13.40;;;;;;;16.38;63.42;100758.84;5086299;28;20517;-78
2024/02/28 10:26:57;;;;;;;22.35;12.65;;;;;;;17.07;60.72;100739.06;5086788;28;20116;-79
2024/02/28 10:29:33;;;;;;;22.33;12.10;;;;;;;17.25;59.11;100732.59;5090361;28;20027;-78
2024/02/28 10:32:00;;;;;;;21.50;12.35;;;;;;;17.44;60.79;100746.59;5089889;28;20097;-78
2024/02/28 10:34:25;;;;;;;23.13;12.30;;;;;;;17.59;59.12;100735.22;5090114;28;20028;-78
2024/02/28 10:36:51;;;;;;;21.15;11.05;;;;;;;17.97;59.39;100733.56;5071796;28;20404;-78
2024/02/28 10:39:17;;;;;;;25.73;11.93;;;;;;;17.86;59.19;100740.75;5090316;28;20039;-78
2024/02/28 10:41:46;;;;;;;25.63;13.02;;;;;;;18.19;56.96;100709.28;5089423;28;20064;-77
2024/02/28 10:44:13;;;;;;;21.80;11.43;;;;;;;18.26;56.40;100731.47;5076522;28;20036;-78
2024/02/28 10:46:39;;;;;;;23.40;11.70;;;;;;;18.19;59.99;100714.66;5086086;28;20077;-78
2024/02/28 10:49:09;;;;;;;20.23;11.43;;;;;;;17.83;58.78;100725.03;5089781;28;20544;-78
2024/02/28 10:51:36;;;;;;;18.83;11.23;;;;;;;17.60;61.59;100723.38;5089522;28;20039;-78
2024/02/28 10:54:13;;;;;;;21.40;11.98;;;;;;;17.74;59.79;100691.47;5089673;28;20103;-78
2024/02/28 10:56:43;;;;;;;22.13;11.93;;;;;;;17.56;60.77;100690.69;5087797;28;20044;-78
2024/02/28 10:59:11;;;;;;;22.35;11.70;;;;;;;17.48;61.71;100697.31;5089731;28;20099;-77
2024/02/28 11:01:42;;;;;;;21.60;11.90;;;;;;;17.98;59.86;100700.13;5089450;28;20032;-77
2024/02/28 11:04:08;;;;;;;21.85;11.52;;;;;;;17.68;61.19;100688.69;5089609;28;20039;-78
2024/02/28 11:06:33;;;;;;;21.30;11.73;;;;;;;18.00;59.71;100679.94;5089862;28;20107;-78